Time;durP1;ratioP1;P1;durP2;ratioP2;P2;SDS_P1;SDS_P2;PMS_P1;PMS_P2;Temp;Humidity;BMP_temperature;BMP_pressure;BME280_temperature;BME280_humidity;BME280_pressure;Samples;Min_cycle;Max_cycle;Signal;HPM_P1;HPM_P2
2022/04/07 00:01:14;;;;;;;21.20;16.20;;;12.50;92.10;;;;;;5077710;28;20321;-83
2022/04/07 00:03:41;;;;;;;17.90;15.80;;;12.50;92.10;;;;;;5094689;28;20271;-83
2022/04/07 00:06:11;;;;;;;23.37;15.70;;;12.50;92.20;;;;;;5078273;28;20221;-83
2022/04/07 00:08:39;;;;;;;18.63;15.27;;;12.50;92.20;;;;;;5098302;28;20225;-83
2022/04/07 00:11:07;;;;;;;22.00;15.90;;;12.50;92.20;;;;;;5098404;28;20204;-84
2022/04/07 00:13:35;;;;;;;17.60;15.47;;;12.50;92.20;;;;;;5076798;28;20597;-83
2022/04/07 00:16:08;;;;;;;20.90;17.50;;;12.50;92.20;;;;;;5078402;28;20621;-83
2022/04/07 00:18:36;;;;;;;20.73;17.07;;;12.50;92.20;;;;;;5061642;28;20217;-83
2022/04/07 00:21:11;;;;;;;22.27;16.87;;;12.50;92.20;;;;;;5076895;28;20199;-84
2022/04/07 00:23:42;;;;;;;20.77;16.80;;;12.50;92.30;;;;;;5076627;28;20218;-83
2022/04/07 00:26:09;;;;;;;24.43;18.97;;;12.50;92.30;;;;;;5091688;28;20235;-83
2022/04/07 00:28:36;;;;;;;19.60;17.50;;;12.50;92.40;;;;;;5076754;28;20239;-83
2022/04/07 00:31:03;;;;;;;24.27;18.00;;;12.40;92.40;;;;;;5095039;28;20201;-83
2022/04/07 00:33:30;;;;;;;27.73;17.80;;;12.40;92.40;;;;;;5091017;28;20297;-84
2022/04/07 00:35:57;;;;;;;26.27;17.73;;;12.40;92.40;;;;;;5058391;28;20318;-84
2022/04/07 00:38:25;;;;;;;22.87;17.33;;;12.40;92.40;;;;;;5076485;28;20232;-83
2022/04/07 00:40:52;;;;;;;28.00;18.83;;;12.40;92.50;;;;;;5078302;28;20210;-83
2022/04/07 00:43:33;;;;;;;21.87;17.43;;;12.40;92.50;;;;;;5076588;28;20215;-83
2022/04/07 00:46:02;;;;;;;22.70;18.13;;;12.40;92.50;;;;;;5096617;28;20195;-83
2022/04/07 00:48:35;;;;;;;19.90;17.30;;;12.40;92.40;;;;;;5076857;28;20221;-83
2022/04/07 00:51:04;;;;;;;21.80;17.37;;;12.40;92.40;;;;;;5095418;28;20207;-84
2022/04/07 00:53:31;;;;;;;28.57;18.60;;;12.40;92.40;;;;;;5094970;28;20572;-83
2022/04/07 00:56:01;;;;;;;19.90;16.63;;;12.40;92.40;;;;;;5097065;28;20230;-82
2022/04/07 00:58:29;;;;;;;21.53;16.70;;;12.40;92.40;;;;;;5058616;28;20207;-83
2022/04/07 01:00:57;;;;;;;19.80;17.53;;;12.40;92.40;;;;;;5096237;28;20521;-84
2022/04/07 01:03:25;;;;;;;23.73;17.33;;;12.40;92.50;;;;;;5092027;28;20225;-83
2022/04/07 01:05:52;;;;;;;22.70;17.67;;;12.40;92.50;;;;;;5093120;28;20278;-83
2022/04/07 01:08:20;;;;;;;24.23;17.77;;;12.40;92.50;;;;;;5075973;28;20294;-83
2022/04/07 01:10:49;;;;;;;20.60;17.40;;;12.40;92.50;;;;;;5076811;28;20589;-83
2022/04/07 01:13:16;;;;;;;25.23;19.10;;;12.40;92.50;;;;;;5075219;28;20201;-84
2022/04/07 01:15:44;;;;;;;23.00;18.70;;;12.40;92.50;;;;;;5077520;28;20671;-83
2022/04/07 01:18:11;;;;;;;20.03;17.60;;;12.40;92.50;;;;;;5092402;28;20226;-83
2022/04/07 01:20:38;;;;;;;24.57;16.83;;;12.40;92.40;;;;;;5080202;28;20193;-83
2022/04/07 01:23:07;;;;;;;26.67;19.07;;;12.40;92.40;;;;;;5095033;28;20286;-83
2022/04/07 01:25:36;;;;;;;23.70;19.43;;;12.40;92.50;;;;;;5081354;28;20628;-83
2022/04/07 01:28:05;;;;;;;24.60;18.70;;;12.40;92.50;;;;;;5079517;28;20235;-83
2022/04/07 01:30:34;;;;;;;23.90;18.73;;;12.30;92.60;;;;;;5080996;28;20217;-83
2022/04/07 01:33:01;;;;;;;26.13;18.33;;;12.30;92.60;;;;;;5095124;28;20236;-83
2022/04/07 01:35:30;;;;;;;24.80;20.37;;;12.20;92.70;;;;;;5094618;28;20571;-83
2022/04/07 01:37:58;;;;;;;25.90;19.90;;;12.20;92.70;;;;;;5080874;28;20305;-83
2022/04/07 01:40:31;;;;;;;23.30;19.63;;;12.20;92.70;;;;;;5077297;28;20205;-83
2022/04/07 01:43:00;;;;;;;23.13;20.00;;;12.20;92.80;;;;;;5097773;28;20219;-83
2022/04/07 01:45:27;;;;;;;23.73;18.60;;;12.20;92.80;;;;;;5081707;28;20197;-83
2022/04/07 01:47:55;;;;;;;21.37;18.80;;;12.20;92.80;;;;;;5097981;28;20225;-83
2022/04/07 01:50:25;;;;;;;23.90;19.23;;;12.20;92.80;;;;;;5097287;28;20202;-86
2022/04/07 01:52:53;;;;;;;20.83;18.47;;;12.20;92.70;;;;;;5080046;28;20235;-83
2022/04/07 01:55:21;;;;;;;22.40;19.10;;;12.10;92.70;;;;;;5079357;28;20210;-84
2022/04/07 01:57:49;;;;;;;21.13;18.27;;;12.10;92.60;;;;;;5080916;28;20224;-84
2022/04/07 02:00:16;;;;;;;22.87;19.27;;;12.10;92.60;;;;;;5095880;28;20214;-83
2022/04/07 02:02:45;;;;;;;22.93;18.47;;;12.10;92.60;;;;;;5062670;28;20292;-84
2022/04/07 02:05:13;;;;;;;21.13;18.83;;;12.10;92.60;;;;;;5080482;28;20270;-84
2022/04/07 02:07:42;;;;;;;21.90;18.27;;;12.10;92.50;;;;;;5096463;28;20195;-83
2022/04/07 02:10:11;;;;;;;22.80;19.40;;;12.10;92.40;;;;;;5081579;28;21224;-84
2022/04/07 02:12:41;;;;;;;27.53;19.30;;;12.10;92.40;;;;;;5082668;28;20219;-84
2022/04/07 02:15:10;;;;;;;21.10;18.23;;;12.10;92.40;;;;;;5098753;28;20224;-83
2022/04/07 02:17:38;;;;;;;22.50;18.00;;;12.00;92.30;;;;;;5082457;28;20318;-84
2022/04/07 02:20:07;;;;;;;23.90;19.07;;;12.00;92.30;;;;;;5083561;28;20276;-84
2022/04/07 02:22:34;;;;;;;20.00;16.90;;;12.00;92.30;;;;;;5066507;28;20211;-83
2022/04/07 02:25:02;;;;;;;20.87;17.83;;;12.00;92.30;;;;;;5099812;28;20206;-83
2022/04/07 02:27:37;;;;;;;20.73;18.63;;;12.00;92.30;;;;;;5095297;28;20192;-83
2022/04/07 02:30:13;;;;;;;27.53;20.10;;;12.00;92.30;;;;;;5083298;28;20751;-83
2022/04/07 02:32:41;;;;;;;30.67;22.00;;;12.00;92.30;;;;;;5100284;28;20223;-84
2022/04/07 02:35:11;;;;;;;28.87;23.03;;;12.00;92.30;;;;;;5096778;28;20237;-84
2022/04/07 02:37:39;;;;;;;27.97;21.80;;;12.00;92.30;;;;;;5098593;28;20309;-84
2022/04/07 02:40:07;;;;;;;26.40;21.83;;;12.00;92.40;;;;;;5098116;28;20631;-84
2022/04/07 02:42:34;;;;;;;23.47;20.90;;;12.00;92.40;;;;;;5097002;28;20213;-84
2022/04/07 02:45:01;;;;;;;26.00;20.27;;;12.00;92.40;;;;;;5079559;28;20317;-83
2022/04/07 02:47:40;;;;;;;22.87;19.83;;;12.00;92.40;;;;;;5076621;28;20304;-83
2022/04/07 02:50:08;;;;;;;25.50;20.97;;;11.90;92.40;;;;;;5079116;28;20198;-84
2022/04/07 02:52:35;;;;;;;26.40;21.30;;;11.90;92.30;;;;;;5078364;28;20226;-83
2022/04/07 02:55:03;;;;;;;25.67;21.67;;;11.90;92.30;;;;;;5078301;28;20205;-84
2022/04/07 02:57:33;;;;;;;24.27;21.67;;;11.90;92.30;;;;;;5095411;28;20382;-84
2022/04/07 03:00:00;;;;;;;22.40;19.60;;;11.90;92.30;;;;;;5079201;28;21758;-83
2022/04/07 03:02:27;;;;;;;23.23;20.67;;;11.90;92.30;;;;;;5093183;28;20291;-83
2022/04/07 03:04:55;;;;;;;33.43;21.03;;;11.80;92.20;;;;;;5095092;28;20225;-83
2022/04/07 03:07:22;;;;;;;23.97;20.33;;;11.80;92.20;;;;;;5076339;28;20698;-84
2022/04/07 03:09:50;;;;;;;27.37;20.77;;;11.70;92.20;;;;;;5096943;28;20201;-84
2022/04/07 03:12:17;;;;;;;23.90;19.90;;;11.70;92.10;;;;;;5096857;28;20225;-84
2022/04/07 03:14:45;;;;;;;23.07;19.03;;;11.60;92.10;;;;;;5064299;28;20208;-83
2022/04/07 03:17:12;;;;;;;23.53;20.20;;;11.60;92.00;;;;;;5097673;28;20225;-83
2022/04/07 03:19:39;;;;;;;22.57;19.07;;;11.50;92.00;;;;;;5081668;28;20202;-83
2022/04/07 03:22:07;;;;;;;23.50;19.80;;;11.50;92.00;;;;;;5078373;28;20222;-83
2022/04/07 03:24:34;;;;;;;25.63;21.37;;;11.40;92.00;;;;;;5076124;28;20211;-84
2022/04/07 03:27:06;;;;;;;22.63;18.30;;;11.40;92.00;;;;;;5076833;28;20208;-83
2022/04/07 03:29:34;;;;;;;22.03;18.23;;;11.40;92.00;;;;;;5078388;28;20242;-84
2022/04/07 03:32:04;;;;;;;21.57;19.20;;;11.40;92.00;;;;;;5094643;28;21852;-84
2022/04/07 03:34:36;;;;;;;23.80;18.80;;;11.40;92.00;;;;;;5062973;28;20237;-84
2022/04/07 03:37:05;;;;;;;24.60;20.67;;;11.30;91.90;;;;;;5063719;28;20240;-84
2022/04/07 03:39:33;;;;;;;23.77;20.97;;;11.30;92.00;;;;;;5081097;28;20213;-84
2022/04/07 03:42:00;;;;;;;30.00;22.23;;;11.30;92.10;;;;;;5095497;28;20216;-83
2022/04/07 03:44:27;;;;;;;32.07;24.33;;;11.30;92.20;;;;;;5077994;28;20256;-83
2022/04/07 03:46:55;;;;;;;35.23;24.93;;;11.30;92.40;;;;;;5096788;28;20287;-84
2022/04/07 03:49:22;;;;;;;30.23;23.37;;;11.40;92.60;;;;;;5080474;28;20253;-83
2022/04/07 03:51:49;;;;;;;32.13;25.07;;;11.40;92.70;;;;;;5082871;28;20646;-83
2022/04/07 03:54:17;;;;;;;28.03;25.07;;;11.40;92.80;;;;;;5080700;28;20227;-84
2022/04/07 03:56:45;;;;;;;27.53;24.63;;;11.50;92.90;;;;;;5086177;28;20226;-84
2022/04/07 03:59:12;;;;;;;30.43;25.13;;;11.50;92.90;;;;;;5104047;28;20218;-83
2022/04/07 04:01:40;;;;;;;30.70;24.97;;;11.50;92.90;;;;;;5077037;28;20246;-83
2022/04/07 04:04:07;;;;;;;27.80;24.77;;;11.50;92.90;;;;;;5077438;28;20682;-83
2022/04/07 04:06:35;;;;;;;31.33;24.40;;;11.50;92.80;;;;;;5095296;28;20201;-83
2022/04/07 04:09:03;;;;;;;28.00;24.60;;;11.50;92.80;;;;;;5093159;28;20565;-83
2022/04/07 04:11:30;;;;;;;27.73;23.63;;;11.40;92.80;;;;;;5092934;28;20223;-83
2022/04/07 04:13:57;;;;;;;27.87;22.67;;;11.40;92.80;;;;;;5094648;28;20281;-83
2022/04/07 04:16:25;;;;;;;31.20;24.10;;;11.40;92.80;;;;;;5096997;28;20217;-84
2022/04/07 04:18:52;;;;;;;28.30;24.43;;;11.40;93.10;;;;;;5096938;28;20208;-83
2022/04/07 04:21:19;;;;;;;30.50;23.80;;;11.30;92.80;;;;;;5095144;28;20191;-83
2022/04/07 04:23:48;;;;;;;30.50;24.70;;;11.30;92.80;;;;;;5097281;28;20211;-83
2022/04/07 04:26:15;;;;;;;32.10;23.93;;;11.20;92.80;;;;;;5094874;28;20266;-84
2022/04/07 04:28:42;;;;;;;28.47;23.10;;;11.20;92.80;;;;;;5098508;28;20253;-83
2022/04/07 04:31:09;;;;;;;33.00;23.20;;;11.20;93.10;;;;;;5078804;28;20239;-84
2022/04/07 04:33:36;;;;;;;34.17;25.37;;;11.10;92.90;;;;;;5078080;28;20260;-83
2022/04/07 04:36:04;;;;;;;28.90;24.67;;;11.10;92.90;;;;;;5061756;28;20281;-83
2022/04/07 04:38:32;;;;;;;29.43;24.43;;;11.10;93.00;;;;;;5080280;28;20287;-83
2022/04/07 04:40:59;;;;;;;29.87;23.93;;;11.00;93.00;;;;;;5080547;28;20579;-83
2022/04/07 04:43:26;;;;;;;29.97;24.03;;;11.00;93.10;;;;;;5081004;28;20207;-83
2022/04/07 04:45:53;;;;;;;27.43;24.40;;;11.00;93.20;;;;;;5093835;28;20544;-83
2022/04/07 04:48:21;;;;;;;32.93;24.47;;;11.00;93.20;;;;;;5081327;28;20202;-83
2022/04/07 04:50:50;;;;;;;26.03;23.23;;;10.90;93.20;;;;;;5066265;28;20230;-83
2022/04/07 04:53:18;;;;;;;27.13;22.03;;;10.90;93.20;;;;;;5074073;28;20271;-84
2022/04/07 04:55:50;;;;;;;32.47;22.73;;;10.90;93.20;;;;;;5064021;28;20213;-86
2022/04/07 04:58:18;;;;;;;31.63;21.13;;;10.80;93.10;;;;;;5081926;28;20497;-86
2022/04/07 05:00:47;;;;;;;24.77;19.40;;;10.80;93.00;;;;;;5061955;28;20211;-85
2022/04/07 05:03:15;;;;;;;25.57;18.57;;;10.80;92.80;;;;;;5079814;28;20206;-85
2022/04/07 05:05:43;;;;;;;23.93;18.80;;;10.80;92.60;;;;;;5079429;28;20195;-85
2022/04/07 05:08:11;;;;;;;21.63;17.30;;;10.70;92.40;;;;;;5099867;28;20284;-83
2022/04/07 05:10:40;;;;;;;19.23;17.07;;;10.70;92.30;;;;;;5083021;28;20209;-84
2022/04/07 05:13:07;;;;;;;22.57;17.63;;;10.70;92.20;;;;;;5095886;28;20292;-83
2022/04/07 05:15:37;;;;;;;21.23;15.80;;;10.70;92.00;;;;;;5082181;28;20216;-84
2022/04/07 05:18:05;;;;;;;18.17;15.70;;;10.70;91.80;;;;;;5093880;28;20240;-83
2022/04/07 05:20:32;;;;;;;18.60;15.13;;;10.70;91.70;;;;;;5081133;28;20302;-83
2022/04/07 05:22:59;;;;;;;15.20;13.47;;;10.70;91.40;;;;;;5098813;28;20224;-83
2022/04/07 05:25:32;;;;;;;17.90;13.53;;;10.80;91.10;;;;;;5081742;28;20214;-84
2022/04/07 05:27:59;;;;;;;14.93;13.13;;;10.80;90.60;;;;;;5096123;28;20207;-83
2022/04/07 05:30:26;;;;;;;15.00;12.97;;;10.90;90.30;;;;;;5098964;28;20231;-83
2022/04/07 05:32:54;;;;;;;16.10;11.70;;;10.90;90.00;;;;;;5080797;28;20280;-83
2022/04/07 05:35:21;;;;;;;16.43;13.40;;;10.90;89.30;;;;;;5068393;28;20214;-83
2022/04/07 05:37:48;;;;;;;13.30;11.90;;;11.00;88.80;;;;;;5077715;28;20232;-84
2022/04/07 05:40:15;;;;;;;14.47;12.73;;;11.00;88.60;;;;;;5081620;28;20198;-83
2022/04/07 05:42:42;;;;;;;20.30;13.87;;;11.00;88.40;;;;;;5097755;28;20286;-83
2022/04/07 05:45:09;;;;;;;13.90;12.47;;;11.00;88.10;;;;;;5097972;28;20229;-83
2022/04/07 05:47:41;;;;;;;26.17;13.13;;;11.00;87.90;;;;;;5079265;28;20202;-84
2022/04/07 05:50:10;;;;;;;24.47;12.57;;;11.00;87.80;;;;;;5080521;28;20267;-83
2022/04/07 05:52:37;;;;;;;19.73;13.40;;;11.00;87.50;;;;;;5078977;28;21098;-83
2022/04/07 05:55:05;;;;;;;15.93;12.70;;;11.10;87.30;;;;;;5087196;28;20213;-83
2022/04/07 05:57:32;;;;;;;17.17;13.20;;;11.10;86.80;;;;;;5097500;28;20701;-83
2022/04/07 06:00:16;;;;;;;19.77;13.77;;;11.20;86.40;;;;;;5098533;28;20199;-83
2022/04/07 06:02:44;;;;;;;14.50;12.93;;;11.40;86.10;;;;;;5081879;28;20243;-83
2022/04/07 06:05:16;;;;;;;16.83;13.63;;;11.50;85.70;;;;;;5078766;28;20202;-83
2022/04/07 06:07:44;;;;;;;15.73;12.70;;;11.70;85.00;;;;;;5067123;28;20234;-83
2022/04/07 06:10:11;;;;;;;17.80;13.30;;;12.00;83.80;;;;;;5080732;28;20276;-83
2022/04/07 06:12:42;;;;;;;18.50;13.77;;;12.20;82.10;;;;;;5096448;28;20228;-84
2022/04/07 06:15:10;;;;;;;16.70;14.47;;;12.50;80.70;;;;;;5080305;28;20197;-83
2022/04/07 06:17:46;;;;;;;20.10;14.10;;;12.70;79.70;;;;;;5096978;28;20307;-83
2022/04/07 06:20:14;;;;;;;24.17;14.93;;;12.90;79.10;;;;;;5081574;28;20230;-84
2022/04/07 06:22:43;;;;;;;21.47;15.20;;;13.00;78.90;;;;;;5095501;28;20217;-83
2022/04/07 06:25:11;;;;;;;18.03;14.63;;;13.10;78.70;;;;;;5080558;28;20218;-83
2022/04/07 06:27:40;;;;;;;20.00;14.27;;;13.10;78.70;;;;;;5078454;28;20617;-83
2022/04/07 06:30:10;;;;;;;18.63;15.57;;;13.10;79.00;;;;;;5061512;28;20198;-83
2022/04/07 06:32:37;;;;;;;18.50;15.50;;;13.10;79.40;;;;;;5094512;28;20203;-83
2022/04/07 06:35:06;;;;;;;18.40;16.20;;;13.10;79.80;;;;;;5075573;28;20196;-83
2022/04/07 06:37:56;;;;;;;22.77;16.70;;;13.10;80.20;;;;;;5089460;28;20232;-83
2022/04/07 06:40:26;;;;;;;23.17;16.77;;;13.10;80.50;;;;;;5093350;28;20277;-83
2022/04/07 06:42:55;;;;;;;19.47;16.90;;;13.20;80.70;;;;;;5077094;28;20211;-83
2022/04/07 06:45:25;;;;;;;23.20;18.37;;;13.30;80.80;;;;;;5096736;28;20204;-83
2022/04/07 06:47:53;;;;;;;24.00;17.40;;;13.30;80.50;;;;;;5085574;28;20216;-83
2022/04/07 06:50:21;;;;;;;18.70;16.70;;;13.40;79.90;;;;;;5097872;28;20240;-84
2022/04/07 06:52:48;;;;;;;24.20;17.40;;;13.50;79.90;;;;;;5078524;28;20243;-83
2022/04/07 06:55:16;;;;;;;22.47;17.67;;;13.60;79.80;;;;;;5076401;28;20204;-83
2022/04/07 06:57:48;;;;;;;25.60;18.80;;;13.80;80.00;;;;;;5072639;28;20228;-83
2022/04/07 07:00:17;;;;;;;20.57;17.87;;;13.80;79.60;;;;;;5074237;28;20202;-83
2022/04/07 07:02:52;;;;;;;20.47;18.37;;;14.00;79.60;;;;;;5075471;28;20630;-83
2022/04/07 07:05:20;;;;;;;24.43;19.47;;;14.10;79.30;;;;;;5093858;28;20220;-83
2022/04/07 07:07:48;;;;;;;21.93;19.20;;;14.20;78.80;;;;;;5091973;28;20627;-83
2022/04/07 07:10:28;;;;;;;23.30;18.43;;;14.30;78.10;;;;;;5075630;28;20248;-83
2022/04/07 07:12:59;;;;;;;22.90;19.17;;;14.50;77.60;;;;;;5078135;28;20227;-82
2022/04/07 07:15:27;;;;;;;24.77;18.77;;;14.50;77.30;;;;;;5081236;28;20233;-84
2022/04/07 07:17:54;;;;;;;23.17;19.17;;;14.60;76.80;;;;;;5100000;28;20254;-83
2022/04/07 07:20:22;;;;;;;20.33;17.77;;;14.70;76.70;;;;;;5088548;28;20308;-83
2022/04/07 07:22:49;;;;;;;23.70;17.10;;;14.90;76.30;;;;;;5070894;28;20206;-83
2022/04/07 07:25:16;;;;;;;18.73;16.73;;;14.90;75.80;;;;;;5077223;28;20290;-83
2022/04/07 07:27:45;;;;;;;18.70;16.47;;;15.10;75.10;;;;;;5091410;28;20232;-83
2022/04/07 07:30:15;;;;;;;19.00;16.63;;;15.20;74.40;;;;;;5096426;28;20201;-83
2022/04/07 07:32:45;;;;;;;19.23;16.33;;;15.30;73.60;;;;;;5095304;28;20201;-84
2022/04/07 07:35:12;;;;;;;18.63;16.73;;;15.40;72.80;;;;;;5076976;28;20201;-84
2022/04/07 07:37:58;;;;;;;22.40;18.07;;;15.50;72.30;;;;;;5076738;28;20267;-83
2022/04/07 07:40:27;;;;;;;18.77;16.87;;;15.70;71.70;;;;;;5094720;28;20199;-83
2022/04/07 07:42:56;;;;;;;19.17;16.27;;;15.80;70.90;;;;;;5077289;28;20224;-83
2022/04/07 07:45:24;;;;;;;23.37;17.77;;;15.90;70.70;;;;;;5093440;28;20292;-83
2022/04/07 07:48:12;;;;;;;18.90;16.40;;;16.00;69.90;;;;;;5078909;28;20648;-84
2022/04/07 07:50:45;;;;;;;24.60;16.07;;;16.20;69.40;;;;;;5077881;28;20280;-83
2022/04/07 07:53:18;;;;;;;20.50;16.93;;;16.30;68.50;;;;;;5096072;28;20278;-83
2022/04/07 07:55:45;;;;;;;17.67;15.83;;;16.40;67.70;;;;;;5096490;28;20236;-82
2022/04/07 07:58:13;;;;;;;17.77;15.27;;;16.60;67.20;;;;;;5076392;28;20231;-83
2022/04/07 08:00:40;;;;;;;19.90;15.73;;;16.70;66.70;;;;;;5085990;28;20202;-83
2022/04/07 08:03:08;;;;;;;18.17;15.27;;;16.90;66.40;;;;;;5077829;28;20206;-83
2022/04/07 08:05:38;;;;;;;15.37;13.77;;;17.00;65.50;;;;;;5093821;28;20198;-84
2022/04/07 08:08:05;;;;;;;17.33;15.50;;;17.20;63.70;;;;;;5095034;28;20205;-83
2022/04/07 08:10:33;;;;;;;17.27;14.37;;;17.30;61.40;;;;;;5077341;28;20208;-83
2022/04/07 08:13:00;;;;;;;17.20;13.73;;;17.40;61.70;;;;;;5094999;28;20205;-82
2022/04/07 08:15:27;;;;;;;14.43;13.03;;;17.50;60.40;;;;;;5075400;28;20242;-82
2022/04/07 08:17:55;;;;;;;13.50;12.30;;;17.50;59.50;;;;;;5095115;28;20227;-84
2022/04/07 08:20:22;;;;;;;14.57;12.27;;;17.60;57.10;;;;;;5091896;28;20206;-83
2022/04/07 08:22:49;;;;;;;14.17;12.77;;;17.60;57.90;;;;;;5074828;28;20528;-83
2022/04/07 08:25:17;;;;;;;14.90;12.77;;;17.70;58.40;;;;;;5075911;28;20197;-84
2022/04/07 08:27:45;;;;;;;15.70;13.83;;;17.90;57.90;;;;;;5095558;28;20197;-84
2022/04/07 08:30:12;;;;;;;14.13;12.73;;;18.00;57.40;;;;;;5078489;28;20542;-83
2022/04/07 08:32:40;;;;;;;13.33;11.33;;;18.10;56.70;;;;;;5100259;28;20250;-83
2022/04/07 08:35:09;;;;;;;12.60;11.40;;;18.20;56.10;;;;;;5084702;28;20197;-83
2022/04/07 08:37:37;;;;;;;12.37;11.07;;;18.30;55.80;;;;;;5080597;28;20260;-85
2022/04/07 08:40:07;;;;;;;11.90;10.60;;;18.50;55.00;;;;;;5083883;28;20201;-84
2022/04/07 08:42:36;;;;;;;15.20;12.20;;;18.60;54.10;;;;;;5065383;28;20234;-84
2022/04/07 08:45:05;;;;;;;12.77;11.57;;;18.70;54.10;;;;;;5084909;28;20193;-84
2022/04/07 08:47:34;;;;;;;11.93;10.27;;;18.80;53.70;;;;;;5066966;28;20206;-84
2022/04/07 08:50:05;;;;;;;14.17;10.93;;;19.00;53.20;;;;;;5099167;28;20203;-84
2022/04/07 08:52:33;;;;;;;12.03;10.83;;;19.10;52.60;;;;;;5083184;28;20199;-84
2022/04/07 08:55:00;;;;;;;15.57;11.03;;;19.20;52.20;;;;;;5082577;28;20227;-83
2022/04/07 08:57:31;;;;;;;11.70;10.50;;;19.20;50.80;;;;;;5066046;28;20322;-83
2022/04/07 08:59:58;;;;;;;11.83;10.63;;;19.00;49.70;;;;;;5101303;28;20224;-84
2022/04/07 09:02:26;;;;;;;15.33;11.20;;;18.90;50.80;;;;;;5089560;28;20235;-85
2022/04/07 09:05:00;;;;;;;12.03;10.50;;;18.80;52.00;;;;;;5083276;28;20199;-82
2022/04/07 09:07:32;;;;;;;11.60;10.50;;;18.90;52.20;;;;;;5081749;28;20242;-84
2022/04/07 09:10:01;;;;;;;19.40;10.47;;;19.00;52.20;;;;;;5085483;28;20605;-84
2022/04/07 09:12:28;;;;;;;13.67;10.20;;;19.10;51.90;;;;;;5083183;28;20193;-83
2022/04/07 09:14:59;;;;;;;12.27;10.67;;;19.30;51.70;;;;;;5068162;28;20219;-83
2022/04/07 09:17:30;;;;;;;13.80;10.23;;;19.50;51.70;;;;;;5098405;28;20211;-84
2022/04/07 09:19:57;;;;;;;13.73;10.63;;;19.70;51.00;;;;;;5085767;28;20262;-84
2022/04/07 09:22:33;;;;;;;14.20;10.50;;;19.80;50.70;;;;;;5082773;28;20212;-83
2022/04/07 09:25:07;;;;;;;12.53;10.87;;;20.00;50.20;;;;;;5082429;28;20190;-84
2022/04/07 09:27:40;;;;;;;14.27;11.53;;;20.10;50.40;;;;;;5101213;28;20248;-83
2022/04/07 09:30:12;;;;;;;13.37;11.27;;;20.20;49.50;;;;;;5102454;28;20607;-84
2022/04/07 09:32:43;;;;;;;13.67;11.80;;;20.10;49.50;;;;;;5083001;28;20223;-81
2022/04/07 09:35:13;;;;;;;11.87;10.47;;;20.10;49.50;;;;;;5084694;28;20207;-83
2022/04/07 09:37:42;;;;;;;13.50;11.07;;;20.00;50.50;;;;;;5101056;28;20242;-84
2022/04/07 09:40:13;;;;;;;13.37;11.17;;;20.00;51.70;;;;;;5081920;28;20190;-84
2022/04/07 09:42:41;;;;;;;13.43;11.70;;;20.20;51.60;;;;;;5079138;28;20200;-83
2022/04/07 09:45:14;;;;;;;15.63;11.70;;;20.30;51.60;;;;;;5098610;28;20201;-84
2022/04/07 09:47:46;;;;;;;12.60;11.27;;;20.50;51.60;;;;;;5098178;28;20204;-84
2022/04/07 09:50:24;;;;;;;16.20;11.63;;;20.70;51.30;;;;;;5079978;28;20254;-82
2022/04/07 09:52:56;;;;;;;14.63;13.13;;;20.90;51.30;;;;;;5077963;28;20199;-84
2022/04/07 09:55:35;;;;;;;16.93;12.47;;;21.00;50.80;;;;;;5099173;28;20208;-84
2022/04/07 09:58:04;;;;;;;13.43;12.03;;;21.20;50.20;;;;;;5081185;28;20215;-83
2022/04/07 10:00:32;;;;;;;13.93;12.43;;;21.20;49.80;;;;;;5099485;28;20197;-83
2022/04/07 10:03:02;;;;;;;13.97;12.10;;;21.30;49.70;;;;;;5097458;28;20226;-84
2022/04/07 10:05:30;;;;;;;19.07;12.63;;;21.40;49.50;;;;;;5062295;28;20549;-83
2022/04/07 10:07:58;;;;;;;15.70;13.87;;;21.50;49.20;;;;;;5079728;28;20214;-84
2022/04/07 10:10:25;;;;;;;15.70;12.27;;;21.60;49.30;;;;;;5081850;28;20211;-84
2022/04/07 10:12:53;;;;;;;16.87;12.27;;;21.60;47.80;;;;;;5079700;28;20312;-83
2022/04/07 10:15:21;;;;;;;17.00;14.57;;;21.70;46.50;;;;;;5076438;28;20209;-84
2022/04/07 10:17:49;;;;;;;17.77;12.73;;;21.70;46.20;;;;;;5083429;28;20209;-84
2022/04/07 10:20:32;;;;;;;15.57;11.80;;;21.70;47.00;;;;;;5063344;28;20245;-84
2022/04/07 10:23:05;;;;;;;15.20;11.27;;;21.80;46.70;;;;;;5099685;28;20227;-84
2022/04/07 10:25:38;;;;;;;17.23;12.63;;;21.90;46.10;;;;;;5099048;28;20185;-84
2022/04/07 10:28:07;;;;;;;14.97;11.00;;;22.00;45.10;;;;;;5081275;28;20209;-82
2022/04/07 10:30:49;;;;;;;14.37;11.10;;;22.00;45.70;;;;;;5078793;28;20553;-83
2022/04/07 10:33:45;;;;;;;18.23;12.77;;;22.20;45.60;;;;;;5098681;28;20719;-81
2022/04/07 10:36:23;;;;;;;18.23;12.73;;;22.20;44.40;;;;;;5100403;28;20211;-81
2022/04/07 10:38:52;;;;;;;17.00;13.30;;;22.00;44.60;;;;;;5087603;28;20227;-82
2022/04/07 10:41:38;;;;;;;18.37;13.90;;;21.80;44.50;;;;;;5085144;28;20541;-83
2022/04/07 10:44:11;;;;;;;19.53;14.63;;;21.80;44.70;;;;;;5078851;28;20583;-81
2022/04/07 10:46:41;;;;;;;18.50;14.20;;;21.80;44.90;;;;;;5095545;28;20196;-82
2022/04/07 10:49:10;;;;;;;18.17;15.37;;;21.70;44.20;;;;;;5080471;28;20255;-82
2022/04/07 10:51:45;;;;;;;18.87;15.73;;;21.60;44.20;;;;;;5080694;28;20235;-82
2022/04/07 10:54:14;;;;;;;17.53;14.47;;;21.60;44.60;;;;;;5078813;28;20207;-83
2022/04/07 10:56:48;;;;;;;18.03;13.97;;;21.50;44.40;;;;;;5094778;28;20204;-82
2022/04/07 10:59:32;;;;;;;20.37;14.80;;;21.50;45.20;;;;;;5095373;28;20224;-82
2022/04/07 11:02:05;;;;;;;17.67;13.87;;;21.60;44.00;;;;;;5096839;28;20243;-83
2022/04/07 11:04:40;;;;;;;23.00;15.50;;;21.60;45.20;;;;;;5094110;28;20200;-83
2022/04/07 11:07:08;;;;;;;19.10;13.87;;;21.70;45.80;;;;;;5096064;28;20292;-83
2022/04/07 11:09:45;;;;;;;18.47;15.70;;;21.90;45.60;;;;;;5079257;28;20639;-83
2022/04/07 11:12:19;;;;;;;22.20;14.87;;;22.00;44.80;;;;;;5082773;28;20192;-83
2022/04/07 11:14:48;;;;;;;18.70;16.17;;;22.20;44.90;;;;;;5076394;28;20197;-83
2022/04/07 11:17:32;;;;;;;24.97;15.93;;;22.40;44.70;;;;;;5077635;28;20200;-84
2022/04/07 11:20:15;;;;;;;20.37;16.33;;;22.50;44.40;;;;;;5079141;28;20555;-83
2022/04/07 11:23:05;;;;;;;20.07;14.70;;;22.60;43.30;;;;;;5063651;28;20276;-83
2022/04/07 11:25:35;;;;;;;16.23;14.47;;;22.70;44.00;;;;;;5095964;28;20196;-84
2022/04/07 11:28:14;;;;;;;23.13;15.73;;;22.70;43.70;;;;;;5096484;28;20223;-84
2022/04/07 11:30:50;;;;;;;18.33;15.50;;;22.80;43.00;;;;;;5080787;28;20220;-83
2022/04/07 11:36:06;;;;;;;19.63;15.50;;;22.70;43.50;;;;;;5075809;28;20213;-82
2022/04/07 11:38:45;;;;;;;19.63;16.70;;;22.70;42.80;;;;;;5076363;28;20219;-83
2022/04/07 11:41:17;;;;;;;20.53;15.37;;;22.70;42.90;;;;;;5093558;28;20232;-84
2022/04/07 11:43:50;;;;;;;22.60;17.40;;;22.60;42.40;;;;;;5080096;28;20225;-83
2022/04/07 11:46:30;;;;;;;23.53;16.67;;;22.60;43.20;;;;;;5097053;28;20275;-83
2022/04/07 11:49:03;;;;;;;21.40;16.70;;;22.70;42.40;;;;;;5077367;28;20217;-84
2022/04/07 11:51:34;;;;;;;20.87;15.33;;;22.70;41.90;;;;;;5076462;28;20217;-83
2022/04/07 11:54:03;;;;;;;22.67;15.70;;;22.70;42.90;;;;;;5076403;28;20198;-82
2022/04/07 11:56:40;;;;;;;23.50;17.00;;;22.80;43.40;;;;;;5095000;28;20303;-84
2022/04/07 11:59:11;;;;;;;25.10;17.30;;;23.00;43.20;;;;;;5062036;28;20209;-84
2022/04/07 12:01:40;;;;;;;23.37;18.70;;;23.10;42.80;;;;;;5076711;28;20259;-82
2022/04/07 12:04:12;;;;;;;24.93;17.50;;;23.20;42.60;;;;;;5092226;28;20189;-82
2022/04/07 12:06:44;;;;;;;20.77;16.07;;;23.20;42.10;;;;;;5076964;28;20200;-83
2022/04/07 12:09:14;;;;;;;23.93;16.47;;;23.20;42.10;;;;;;5077350;28;20303;-83
2022/04/07 12:11:43;;;;;;;20.90;15.97;;;23.20;41.60;;;;;;5078120;28;20226;-84
2022/04/07 12:14:14;;;;;;;25.97;16.30;;;23.20;42.30;;;;;;5094128;28;20211;-83
2022/04/07 12:16:48;;;;;;;22.23;15.70;;;23.30;42.70;;;;;;5092579;28;20280;-84
2022/04/07 12:19:19;;;;;;;18.63;14.30;;;23.40;42.20;;;;;;5060670;28;20628;-83
2022/04/07 12:21:53;;;;;;;20.00;16.00;;;23.60;42.30;;;;;;5077539;28;20208;-82
2022/04/07 12:24:21;;;;;;;21.60;16.33;;;23.60;41.90;;;;;;5079251;28;20199;-84
2022/04/07 12:26:50;;;;;;;21.37;16.13;;;23.60;41.10;;;;;;5091409;28;20197;-82
2022/04/07 12:29:26;;;;;;;22.57;15.33;;;23.60;41.40;;;;;;5092747;28;20225;-83
2022/04/07 12:32:09;;;;;;;21.57;16.73;;;23.50;41.50;;;;;;5072532;28;20216;-84
2022/04/07 12:34:49;;;;;;;23.67;15.53;;;23.50;40.50;;;;;;5094157;28;20213;-83
2022/04/07 12:37:39;;;;;;;20.10;15.27;;;23.50;40.60;;;;;;5094254;28;20633;-84
2022/04/07 12:40:15;;;;;;;25.23;15.83;;;23.40;40.60;;;;;;5075547;28;20189;-83
2022/04/07 12:42:51;;;;;;;21.17;15.97;;;23.10;40.60;;;;;;5076616;28;20275;-83
2022/04/07 12:45:18;;;;;;;22.43;15.93;;;23.10;41.50;;;;;;5097091;28;20551;-83